sensor_id;sensor_type;location;lat;lon;timestamp;temperature;humidity
5150;DHT22;2593;52.466;13.436;2024-03-23T00:52:32;9.10;99.90
5150;DHT22;2593;52.466;13.436;2024-03-23T00:54:58;9.10;99.90
5150;DHT22;2593;52.466;13.436;2024-03-23T00:57:23;9.10;99.90
5150;DHT22;2593;52.466;13.436;2024-03-23T00:59:49;9.10;99.90
5150;DHT22;2593;52.466;13.436;2024-03-23T01:02:14;9.10;99.90
5150;DHT22;2593;52.466;13.436;2024-03-23T01:04:40;9.00;99.90
5150;DHT22;2593;52.466;13.436;2024-03-23T01:07:05;9.00;99.90
5150;DHT22;2593;52.466;13.436;2024-03-23T01:09:31;9.10;99.90
5150;DHT22;2593;52.466;13.436;2024-03-23T01:11:56;9.10;99.90
5150;DHT22;2593;52.466;13.436;2024-03-23T01:14:22;9.10;99.90
5150;DHT22;2593;52.466;13.436;2024-03-23T01:16:47;9.10;99.90
5150;DHT22;2593;52.466;13.436;2024-03-23T01:19:13;9.20;99.90
5150;DHT22;2593;52.466;13.436;2024-03-23T01:21:38;9.20;99.90
5150;DHT22;2593;52.466;13.436;2024-03-23T01:24:04;9.20;99.90
5150;DHT22;2593;52.466;13.436;2024-03-23T01:26:30;9.20;99.90
5150;DHT22;2593;52.466;13.436;2024-03-23T01:28:55;9.10;99.90
5150;DHT22;2593;52.466;13.436;2024-03-23T01:31:21;9.20;99.90
5150;DHT22;2593;52.466;13.436;2024-03-23T01:33:46;9.10;99.90
5150;DHT22;2593;52.466;13.436;2024-03-23T01:36:12;9.10;99.90
5150;DHT22;2593;52.466;13.436;2024-03-23T01:38:37;9.10;99.90
5150;DHT22;2593;52.466;13.436;2024-03-23T01:41:03;9.10;99.90
5150;DHT22;2593;52.466;13.436;2024-03-23T01:43:28;9.10;99.90
5150;DHT22;2593;52.466;13.436;2024-03-23T01:45:54;9.10;99.90
5150;DHT22;2593;52.466;13.436;2024-03-23T01:48:20;9.00;99.90
5150;DHT22;2593;52.466;13.436;2024-03-23T01:50:45;8.90;99.90
5150;DHT22;2593;52.466;13.436;2024-03-23T01:53:11;8.90;99.90
5150;DHT22;2593;52.466;13.436;2024-03-23T01:55:37;8.90;99.90
5150;DHT22;2593;52.466;13.436;2024-03-23T01:58:04;8.90;99.90
5150;DHT22;2593;52.466;13.436;2024-03-23T02:00:30;9.00;1.00
5150;DHT22;2593;52.466;13.436;2024-03-23T02:02:55;9.00;1.00
5150;DHT22;2593;52.466;13.436;2024-03-23T02:05:21;9.10;1.00
5150;DHT22;2593;52.466;13.436;2024-03-23T02:07:47;9.10;99.90
5150;DHT22;2593;52.466;13.436;2024-03-23T02:10:13;8.90;1.00
5150;DHT22;2593;52.466;13.436;2024-03-23T02:12:38;8.90;1.00
5150;DHT22;2593;52.466;13.436;2024-03-23T02:15:04;8.70;1.00
5150;DHT22;2593;52.466;13.436;2024-03-23T02:17:30;8.70;1.00
5150;DHT22;2593;52.466;13.436;2024-03-23T02:19:56;8.60;35.90
5150;DHT22;2593;52.466;13.436;2024-03-23T02:22:21;8.60;99.90
5150;DHT22;2593;52.466;13.436;2024-03-23T02:24:47;8.50;99.90
5150;DHT22;2593;52.466;13.436;2024-03-23T02:27:12;8.50;99.90
5150;DHT22;2593;52.466;13.436;2024-03-23T02:29:38;8.60;99.90
5150;DHT22;2593;52.466;13.436;2024-03-23T02:32:03;8.70;99.90
5150;DHT22;2593;52.466;13.436;2024-03-23T02:34:29;8.60;99.90
5150;DHT22;2593;52.466;13.436;2024-03-23T02:36:55;8.60;99.90
5150;DHT22;2593;52.466;13.436;2024-03-23T02:39:20;8.60;99.90
5150;DHT22;2593;52.466;13.436;2024-03-23T02:41:46;8.70;99.90
5150;DHT22;2593;52.466;13.436;2024-03-23T02:44:13;8.70;99.90
5150;DHT22;2593;52.466;13.436;2024-03-23T02:46:39;8.70;99.90
5150;DHT22;2593;52.466;13.436;2024-03-23T02:49:05;8.60;99.90
5150;DHT22;2593;52.466;13.436;2024-03-23T02:51:30;8.60;99.90
5150;DHT22;2593;52.466;13.436;2024-03-23T02:53:56;8.60;99.90
5150;DHT22;2593;52.466;13.436;2024-03-23T02:56:21;8.70;99.90
5150;DHT22;2593;52.466;13.436;2024-03-23T02:58:47;8.80;99.90
5150;DHT22;2593;52.466;13.436;2024-03-23T03:01:13;9.00;98.60
5150;DHT22;2593;52.466;13.436;2024-03-23T03:03:38;8.80;8.80
5150;DHT22;2593;52.466;13.436;2024-03-23T03:06:04;8.80;39.80
5150;DHT22;2593;52.466;13.436;2024-03-23T03:08:29;8.80;99.90
5150;DHT22;2593;52.466;13.436;2024-03-23T03:10:55;8.70;99.90
5150;DHT22;2593;52.466;13.436;2024-03-23T03:13:20;8.60;99.90
5150;DHT22;2593;52.466;13.436;2024-03-23T03:15:46;8.60;99.90
5150;DHT22;2593;52.466;13.436;2024-03-23T03:18:11;8.60;99.90
5150;DHT22;2593;52.466;13.436;2024-03-23T03:20:40;8.60;99.90
5150;DHT22;2593;52.466;13.436;2024-03-23T03:23:08;8.80;99.90
5150;DHT22;2593;52.466;13.436;2024-03-23T03:25:35;8.80;82.30
5150;DHT22;2593;52.466;13.436;2024-03-23T03:28:00;8.80;11.40
5150;DHT22;2593;52.466;13.436;2024-03-23T03:30:27;8.90;1.00
5150;DHT22;2593;52.466;13.436;2024-03-23T03:32:53;8.90;1.00
5150;DHT22;2593;52.466;13.436;2024-03-23T03:35:19;8.90;1.00
5150;DHT22;2593;52.466;13.436;2024-03-23T03:37:44;8.90;1.00
5150;DHT22;2593;52.466;13.436;2024-03-23T03:40:10;8.80;1.00
5150;DHT22;2593;52.466;13.436;2024-03-23T03:42:36;8.80;1.00
5150;DHT22;2593;52.466;13.436;2024-03-23T03:45:02;8.70;1.00
5150;DHT22;2593;52.466;13.436;2024-03-23T03:47:29;8.60;1.00
5150;DHT22;2593;52.466;13.436;2024-03-23T03:49:55;8.70;1.00
5150;DHT22;2593;52.466;13.436;2024-03-23T03:52:20;8.60;1.00
5150;DHT22;2593;52.466;13.436;2024-03-23T03:54:46;8.60;1.00
5150;DHT22;2593;52.466;13.436;2024-03-23T03:57:12;8.50;1.00
5150;DHT22;2593;52.466;13.436;2024-03-23T03:59:37;8.50;1.00
5150;DHT22;2593;52.466;13.436;2024-03-23T04:02:03;8.50;1.00
5150;DHT22;2593;52.466;13.436;2024-03-23T04:04:28;8.50;1.00
5150;DHT22;2593;52.466;13.436;2024-03-23T04:07:03;8.50;1.00
5150;DHT22;2593;52.466;13.436;2024-03-23T04:09:30;8.40;1.00
5150;DHT22;2593;52.466;13.436;2024-03-23T04:11:56;8.40;1.00
5150;DHT22;2593;52.466;13.436;2024-03-23T04:14:21;8.40;1.00
5150;DHT22;2593;52.466;13.436;2024-03-23T04:16:47;8.50;23.00
5150;DHT22;2593;52.466;13.436;2024-03-23T04:19:12;8.30;99.90
5150;DHT22;2593;52.466;13.436;2024-03-23T04:21:38;8.30;90.70
5150;DHT22;2593;52.466;13.436;2024-03-23T04:24:04;8.20;12.30
5150;DHT22;2593;52.466;13.436;2024-03-23T04:26:29;8.20;1.00
5150;DHT22;2593;52.466;13.436;2024-03-23T04:28:55;8.10;1.00
5150;DHT22;2593;52.466;13.436;2024-03-23T04:31:21;8.10;1.00
5150;DHT22;2593;52.466;13.436;2024-03-23T04:33:47;8.00;99.90
5150;DHT22;2593;52.466;13.436;2024-03-23T04:36:12;8.00;99.90
5150;DHT22;2593;52.466;13.436;2024-03-23T04:38:38;8.00;99.90
5150;DHT22;2593;52.466;13.436;2024-03-23T04:41:03;7.90;99.90
5150;DHT22;2593;52.466;13.436;2024-03-23T04:43:29;7.80;99.90
5150;DHT22;2593;52.466;13.436;2024-03-23T04:45:55;7.80;99.90
5150;DHT22;2593;52.466;13.436;2024-03-23T04:48:21;7.70;99.90
5150;DHT22;2593;52.466;13.436;2024-03-23T04:50:47;7.60;1.00
5150;DHT22;2593;52.466;13.436;2024-03-23T04:53:13;7.60;1.00
5150;DHT22;2593;52.466;13.436;2024-03-23T04:55:38;7.60;1.00
5150;DHT22;2593;52.466;13.436;2024-03-23T04:58:04;7.50;1.00
5150;DHT22;2593;52.466;13.436;2024-03-23T05:00:29;7.60;54.60
5150;DHT22;2593;52.466;13.436;2024-03-23T05:02:55;7.60;99.90
5150;DHT22;2593;52.466;13.436;2024-03-23T05:05:20;7.60;99.90
5150;DHT22;2593;52.466;13.436;2024-03-23T05:07:46;7.60;99.90
5150;DHT22;2593;52.466;13.436;2024-03-23T05:10:12;7.60;99.90
5150;DHT22;2593;52.466;13.436;2024-03-23T05:12:38;7.60;99.90
5150;DHT22;2593;52.466;13.436;2024-03-23T05:15:04;7.60;99.90
5150;DHT22;2593;52.466;13.436;2024-03-23T05:17:31;7.60;99.90
5150;DHT22;2593;52.466;13.436;2024-03-23T05:19:56;7.50;99.90
5150;DHT22;2593;52.466;13.436;2024-03-23T05:22:22;7.40;93.90
5150;DHT22;2593;52.466;13.436;2024-03-23T05:24:48;7.40;1.00
5150;DHT22;2593;52.466;13.436;2024-03-23T05:27:13;7.40;93.40
5150;DHT22;2593;52.466;13.436;2024-03-23T05:29:39;7.40;99.90
5150;DHT22;2593;52.466;13.436;2024-03-23T05:32:04;7.40;99.90
5150;DHT22;2593;52.466;13.436;2024-03-23T05:34:30;7.40;99.90
5150;DHT22;2593;52.466;13.436;2024-03-23T05:36:55;7.50;99.90
5150;DHT22;2593;52.466;13.436;2024-03-23T05:39:21;7.50;99.90
5150;DHT22;2593;52.466;13.436;2024-03-23T05:41:48;7.50;99.90
5150;DHT22;2593;52.466;13.436;2024-03-23T05:44:13;7.50;99.90
5150;DHT22;2593;52.466;13.436;2024-03-23T05:46:40;7.40;99.90
5150;DHT22;2593;52.466;13.436;2024-03-23T05:49:06;7.40;1.00
5150;DHT22;2593;52.466;13.436;2024-03-23T05:51:31;7.40;99.90
5150;DHT22;2593;52.466;13.436;2024-03-23T05:53:57;7.40;1.00
5150;DHT22;2593;52.466;13.436;2024-03-23T05:56:22;7.40;99.90
5150;DHT22;2593;52.466;13.436;2024-03-23T05:58:48;7.40;1.00
5150;DHT22;2593;52.466;13.436;2024-03-23T06:01:14;7.50;70.70
5150;DHT22;2593;52.466;13.436;2024-03-23T06:03:39;7.50;99.90
5150;DHT22;2593;52.466;13.436;2024-03-23T06:06:05;7.60;1.00
5150;DHT22;2593;52.466;13.436;2024-03-23T06:08:35;7.50;99.90
5150;DHT22;2593;52.466;13.436;2024-03-23T06:11:01;7.50;99.90
5150;DHT22;2593;52.466;13.436;2024-03-23T06:13:26;7.50;99.90
5150;DHT22;2593;52.466;13.436;2024-03-23T06:15:55;7.60;1.00
5150;DHT22;2593;52.466;13.436;2024-03-23T06:18:20;7.60;99.90
5150;DHT22;2593;52.466;13.436;2024-03-23T06:20:46;7.60;99.90
5150;DHT22;2593;52.466;13.436;2024-03-23T06:23:11;7.50;99.90
5150;DHT22;2593;52.466;13.436;2024-03-23T06:25:38;7.60;1.00
5150;DHT22;2593;52.466;13.436;2024-03-23T06:28:03;7.70;99.90
5150;DHT22;2593;52.466;13.436;2024-03-23T06:30:29;7.70;2.20
5150;DHT22;2593;52.466;13.436;2024-03-23T06:32:57;7.60;1.00
5150;DHT22;2593;52.466;13.436;2024-03-23T06:35:22;7.60;1.00
